Weather at Derryogue

Public forecast

Using degrees Celsius for public forecast. Weather courtesy of forecast.io.

Closest aviation weather report (METAR) to Derryogue

Closest report is George Best Belfast City Airport, 34.4 nm (63.8 km) N.

2024/05/24 01:20 (retrieved 12 minutes ago)

EGAC 240120Z AUTO 33004KT 280V010 9999 -RA OVC010 10/08 Q1014

Closest aviation forecast (TAF) to Derryogue

Forecast is more than 6 hours old.

Closest forecast is RAF Waddington, 203.1 nm (376.2 km) ESE.

2024/05/23 15:54 (retrieved 10 hours ago)

TAF TAF EGXW 231642Z 2315/2409 CNL